createdAt,value
2018-10-06T00:00:53.353Z,56133.41
2018-10-06T00:03:22.537Z,56168.37
2018-10-06T00:05:51.708Z,56168.37
2018-10-06T00:08:20.856Z,56153.97
2018-10-06T00:10:50.049Z,56173.51
2018-10-06T00:13:19.196Z,56150.89
2018-10-06T00:15:48.381Z,56133.41
2018-10-06T00:18:17.565Z,56148.83
2018-10-06T00:20:46.724Z,56163.23
2018-10-06T00:23:15.853Z,56158.09
2018-10-06T00:25:45.065Z,56181.73
2018-10-06T00:28:14.225Z,56146.77
2018-10-06T00:30:43.377Z,56145.75
2018-10-06T00:33:12.528Z,56174.54
2018-10-06T00:35:41.710Z,56153.97
2018-10-06T00:38:10.875Z,56141.63
2018-10-06T00:40:40.073Z,56173.51
2018-10-06T00:43:09.248Z,56163.23
2018-10-06T00:45:38.437Z,56174.54
2018-10-06T00:48:07.728Z,56160.14
2018-10-06T00:50:36.880Z,56128.27
2018-10-06T00:53:06.032Z,56148.83
2018-10-06T00:55:35.221Z,56107.70
2018-10-06T00:58:04.367Z,56174.54
2018-10-06T01:00:33.536Z,56178.65
2018-10-06T01:03:02.725Z,56216.70
2018-10-06T01:05:31.921Z,56164.25
2018-10-06T01:08:01.092Z,56159.11
2018-10-06T01:10:30.298Z,56159.11
2018-10-06T01:12:59.487Z,56190.99
2018-10-06T01:15:28.684Z,56141.63
2018-10-06T01:17:58.386Z,56153.97
2018-10-06T01:20:27.523Z,56122.09
2018-10-06T01:22:56.711Z,56141.63
2018-10-06T01:25:25.869Z,56168.37
2018-10-06T01:27:55.041Z,56157.05
2018-10-06T01:30:24.219Z,56213.61
2018-10-06T01:32:53.397Z,56156.03
2018-10-06T01:35:22.577Z,56163.23
2018-10-06T01:37:51.720Z,56150.89
2018-10-06T01:40:20.923Z,56141.63
2018-10-06T01:42:50.128Z,56178.65
2018-10-06T01:45:19.298Z,56183.79
2018-10-06T01:47:48.467Z,56177.62
2018-10-06T01:50:17.675Z,56122.09
2018-10-06T01:52:46.928Z,56168.37
2018-10-06T01:55:16.121Z,56147.80
2018-10-06T01:57:45.280Z,56173.51
2018-10-06T02:00:14.828Z,56177.62
2018-10-06T02:02:43.977Z,56162.20
2018-10-06T02:05:13.099Z,56173.51
2018-10-06T02:07:42.252Z,56149.86
2018-10-06T02:10:11.380Z,56129.29
2018-10-06T02:12:40.562Z,56156.03
2018-10-06T02:15:10.024Z,56193.05
2018-10-06T02:17:39.215Z,56164.25
2018-10-06T02:20:08.795Z,56179.68
2018-10-06T02:22:37.997Z,56213.61
2018-10-06T02:25:07.200Z,56152.94
2018-10-06T02:27:36.380Z,56183.79
2018-10-06T02:30:05.913Z,56161.17
2018-10-06T02:32:35.031Z,56152.94
2018-10-06T02:35:04.172Z,56182.76
2018-10-06T02:37:34.573Z,56151.91
2018-10-06T02:40:03.791Z,56169.39
2018-10-06T02:42:32.959Z,56156.03
2018-10-06T02:45:02.133Z,56175.56
2018-10-06T02:47:31.322Z,56177.62
2018-10-06T02:50:00.505Z,56158.09
2018-10-06T02:52:29.635Z,56156.03
2018-10-06T02:54:58.798Z,56165.28
2018-10-06T02:57:27.916Z,56166.31
2018-10-06T02:59:57.084Z,56175.56
2018-10-06T03:02:26.248Z,56172.48
2018-10-06T03:04:55.420Z,56131.35
2018-10-06T03:07:24.583Z,56186.87
2018-10-06T03:09:53.724Z,56152.94
2018-10-06T03:12:22.872Z,56161.17
2018-10-06T03:14:52.015Z,56164.25
2018-10-06T03:17:21.184Z,56198.19
2018-10-06T03:19:50.375Z,56153.97
2018-10-06T03:22:19.557Z,56201.27
2018-10-06T03:24:48.727Z,56203.33
2018-10-06T03:27:17.889Z,56186.87
2018-10-06T03:29:47.042Z,56176.59
2018-10-06T03:32:16.214Z,56156.03
2018-10-06T03:34:45.408Z,56184.82
2018-10-06T03:37:14.643Z,56156.03
2018-10-06T03:39:43.816Z,56206.41
2018-10-06T03:42:13.014Z,56159.11
2018-10-06T03:44:42.207Z,56180.71
2018-10-06T03:47:11.384Z,56185.85
2018-10-06T03:49:40.544Z,56198.19
2018-10-06T03:52:09.707Z,56188.93
2018-10-06T03:54:38.921Z,56179.68
2018-10-06T03:57:08.080Z,56124.15
2018-10-06T03:59:37.240Z,56175.56
2018-10-06T04:02:06.422Z,56202.30
2018-10-06T04:04:35.572Z,56164.25
2018-10-06T04:07:04.748Z,56180.71
2018-10-06T04:09:33.948Z,56175.56
2018-10-06T04:12:03.109Z,56183.79
2018-10-06T04:14:32.266Z,56169.39
2018-10-06T04:17:01.452Z,56182.76
2018-10-06T04:19:30.600Z,56155.00
2018-10-06T04:21:59.747Z,56195.10
2018-10-06T04:24:28.893Z,56174.54
2018-10-06T04:26:58.070Z,56177.62
2018-10-06T04:29:27.249Z,56172.48
2018-10-06T04:31:56.437Z,56135.46
2018-10-06T04:34:25.611Z,56177.62
2018-10-06T04:36:54.764Z,56186.87
2018-10-06T04:39:23.929Z,56204.36
2018-10-06T04:41:53.097Z,56192.02
2018-10-06T04:44:22.263Z,56159.11
2018-10-06T04:46:51.428Z,56156.03
2018-10-06T04:49:20.596Z,56163.23
2018-10-06T04:51:49.803Z,56183.79
2018-10-06T04:54:18.960Z,56201.27
2018-10-06T04:56:48.143Z,56149.86
2018-10-06T04:59:17.302Z,56153.97
2018-10-06T05:01:46.429Z,56170.42
2018-10-06T05:04:15.574Z,56186.87
2018-10-06T05:06:44.772Z,56164.25
2018-10-06T05:09:13.949Z,56156.03
2018-10-06T05:11:43.092Z,56153.97
2018-10-06T05:14:12.270Z,56188.93
2018-10-06T05:16:41.386Z,56178.65
2018-10-06T05:19:10.528Z,56176.59
2018-10-06T05:21:39.715Z,56174.54
2018-10-06T05:24:08.956Z,56165.28
2018-10-06T05:26:38.132Z,56189.96
2018-10-06T05:29:07.277Z,56175.56
2018-10-06T05:31:36.460Z,56156.03
2018-10-06T05:34:05.840Z,56133.41
2018-10-06T05:36:34.962Z,56197.16
2018-10-06T05:39:04.723Z,56171.45
2018-10-06T05:41:33.900Z,56194.07
2018-10-06T05:44:03.116Z,56172.48
2018-10-06T05:46:32.359Z,56160.14
2018-10-06T05:49:01.476Z,56164.25
2018-10-06T05:51:30.640Z,56151.91
2018-10-06T05:53:59.799Z,56164.25
2018-10-06T05:56:28.951Z,56145.75
2018-10-06T05:58:58.263Z,56134.43
2018-10-06T06:01:27.356Z,56126.21
2018-10-06T06:03:56.524Z,56147.80
2018-10-06T06:06:25.660Z,56153.97
2018-10-06T06:08:54.819Z,56170.42
2018-10-06T06:11:23.959Z,56192.02
2018-10-06T06:13:53.130Z,56130.32
2018-10-06T06:16:22.305Z,56156.03
2018-10-06T06:18:51.464Z,56180.71
2018-10-06T06:21:20.654Z,56145.75
2018-10-06T06:23:49.880Z,56133.41
2018-10-06T06:26:19.055Z,56143.69
2018-10-06T06:28:48.253Z,56170.42
2018-10-06T06:31:17.472Z,56139.57
2018-10-06T06:33:46.597Z,56170.42
2018-10-06T06:36:15.781Z,56115.93
2018-10-06T06:38:44.944Z,56144.71
2018-10-06T06:41:14.104Z,56123.12
2018-10-06T06:43:43.359Z,56131.35
2018-10-06T06:46:12.460Z,56147.80
2018-10-06T06:48:41.633Z,56144.71
2018-10-06T06:51:10.863Z,56157.05
2018-10-06T06:53:40.046Z,56132.38
2018-10-06T06:56:09.212Z,56093.30
2018-10-06T06:58:38.568Z,56117.98
2018-10-06T07:01:07.766Z,56131.35
2018-10-06T07:03:36.942Z,56120.04
2018-10-06T07:06:06.102Z,56078.91
2018-10-06T07:08:35.269Z,56106.67
2018-10-06T07:11:04.444Z,56145.75
2018-10-06T07:13:33.601Z,56141.63
2018-10-06T07:16:02.761Z,56143.69
2018-10-06T07:18:31.925Z,56107.70
2018-10-06T07:21:01.113Z,56121.07
2018-10-06T07:23:30.315Z,56135.46
2018-10-06T07:25:59.480Z,56086.11
2018-10-06T07:28:28.717Z,56133.41
2018-10-06T07:30:57.885Z,56096.39
2018-10-06T07:33:27.077Z,56121.07
2018-10-06T07:35:56.215Z,56103.59
2018-10-06T07:38:25.379Z,56120.04
2018-10-06T07:40:54.554Z,56095.36
2018-10-06T07:43:23.734Z,56088.16
2018-10-06T07:45:52.893Z,56079.94
2018-10-06T07:48:22.064Z,56079.94
2018-10-06T07:50:51.277Z,56078.91
2018-10-06T07:53:20.453Z,56087.14
2018-10-06T07:55:49.624Z,56079.94
2018-10-06T07:58:18.774Z,56125.18
2018-10-06T08:00:47.933Z,56103.59
2018-10-06T08:03:17.055Z,56079.94
2018-10-06T08:05:46.259Z,56088.16
2018-10-06T08:08:15.409Z,56069.65
2018-10-06T08:10:44.558Z,56078.91
2018-10-06T08:13:13.698Z,56042.92
2018-10-06T08:15:42.869Z,56103.59
2018-10-06T08:18:11.993Z,56090.22
2018-10-06T08:20:41.163Z,56076.85
2018-10-06T08:23:10.315Z,56090.22
2018-10-06T08:25:39.479Z,56053.20
2018-10-06T08:28:08.748Z,56092.28
2018-10-06T08:30:37.904Z,56071.71
2018-10-06T08:33:07.089Z,56057.32
2018-10-06T08:35:36.216Z,56051.14
2018-10-06T08:38:05.357Z,56069.65
2018-10-06T08:40:34.496Z,56043.95
2018-10-06T08:43:03.646Z,56053.20
2018-10-06T08:45:32.813Z,56067.60
2018-10-06T08:48:01.957Z,56044.98
2018-10-06T08:50:31.237Z,56044.98
2018-10-06T08:53:00.395Z,56038.81
2018-10-06T08:55:29.559Z,56040.86
2018-10-06T08:57:58.713Z,56047.03
2018-10-06T09:00:27.874Z,56030.58
2018-10-06T09:02:56.984Z,56034.70
2018-10-06T09:05:26.148Z,56064.51
2018-10-06T09:07:55.292Z,56036.75
2018-10-06T09:10:24.457Z,56007.96
2018-10-06T09:12:53.643Z,55990.48
2018-10-06T09:15:22.829Z,55989.45
2018-10-06T09:17:52.048Z,55980.20
2018-10-06T09:20:21.196Z,55966.83
2018-10-06T09:22:50.370Z,55927.76
2018-10-06T09:25:19.544Z,55910.28
2018-10-06T09:27:48.752Z,55889.72
2018-10-06T09:30:17.878Z,55879.43
2018-10-06T09:32:47.041Z,55861.95
2018-10-06T09:35:16.201Z,55909.25
2018-10-06T09:37:45.378Z,55893.83
2018-10-06T09:40:14.514Z,55896.91
2018-10-06T09:42:43.744Z,55892.80
2018-10-06T09:45:12.830Z,55888.69
2018-10-06T09:47:41.992Z,55903.08
2018-10-06T09:50:11.168Z,55916.45
2018-10-06T09:52:40.323Z,55896.91
2018-10-06T09:55:09.541Z,55880.46
2018-10-06T09:57:38.685Z,55909.25
2018-10-06T10:00:08.390Z,55892.80
2018-10-06T10:02:42.788Z,55917.48
2018-10-06T10:05:17.422Z,55932.90
2018-10-06T10:07:46.471Z,55948.32
2018-10-06T10:10:15.614Z,55943.18
2018-10-06T10:12:44.862Z,55937.01
2018-10-06T10:15:14.025Z,55958.61
2018-10-06T10:17:43.305Z,55932.90
2018-10-06T10:20:12.425Z,55917.48
2018-10-06T10:22:41.689Z,55950.38
2018-10-06T10:25:10.840Z,55939.07
2018-10-06T10:27:40.002Z,55968.89
2018-10-06T10:30:09.196Z,55975.06
2018-10-06T10:32:38.384Z,55929.82
2018-10-06T10:35:07.612Z,56010.02
2018-10-06T10:37:36.728Z,55980.20
2018-10-06T10:40:05.900Z,55963.75
2018-10-06T10:42:35.061Z,55981.23
2018-10-06T10:45:04.238Z,55969.92
2018-10-06T10:47:33.456Z,55984.31
2018-10-06T10:50:02.602Z,56005.90
2018-10-06T10:52:31.764Z,55982.25
2018-10-06T10:55:00.986Z,55978.14
2018-10-06T10:57:30.500Z,55963.75
2018-10-06T10:59:59.802Z,55977.11
2018-10-06T11:02:28.828Z,56001.79
2018-10-06T11:04:57.967Z,55985.34
2018-10-06T11:07:27.097Z,55976.09
2018-10-06T11:09:56.234Z,55999.73
2018-10-06T11:12:25.389Z,56022.36
2018-10-06T11:14:54.544Z,56020.30
2018-10-06T11:17:23.752Z,55985.34
2018-10-06T11:19:52.799Z,56021.33
2018-10-06T11:22:21.942Z,56033.67
2018-10-06T11:24:54.235Z,55993.57
2018-10-06T11:27:23.301Z,56014.13
2018-10-06T11:29:52.483Z,56053.20
2018-10-06T11:32:21.645Z,56007.96
2018-10-06T11:34:50.864Z,55999.73
2018-10-06T11:37:20.115Z,56014.13
2018-10-06T11:39:49.214Z,56000.76
2018-10-06T11:42:18.363Z,56019.27
2018-10-06T11:44:47.541Z,55993.57
2018-10-06T11:47:16.684Z,56028.52
2018-10-06T11:49:45.860Z,55995.62
2018-10-06T11:52:15.044Z,56006.93
2018-10-06T11:54:44.198Z,56020.30
2018-10-06T11:57:13.370Z,55963.75
2018-10-06T11:59:42.548Z,56016.19
2018-10-06T12:02:11.707Z,56007.96
2018-10-06T12:04:40.886Z,55997.68
2018-10-06T12:07:10.054Z,55965.80
2018-10-06T12:09:39.200Z,55999.73
2018-10-06T12:12:08.408Z,56003.85
2018-10-06T12:14:37.536Z,55980.20
2018-10-06T12:17:06.724Z,55970.95
2018-10-06T12:19:35.855Z,55971.97
2018-10-06T12:22:05.021Z,55980.20
2018-10-06T12:24:34.246Z,55996.65
2018-10-06T12:27:03.442Z,55996.65
2018-10-06T12:29:32.600Z,55999.73
2018-10-06T12:32:01.813Z,55965.80
2018-10-06T12:34:30.963Z,55986.37
2018-10-06T12:37:00.161Z,55996.65
2018-10-06T12:39:29.353Z,55947.30
2018-10-06T12:41:58.548Z,55980.20
2018-10-06T12:44:27.745Z,55971.97
2018-10-06T12:46:56.920Z,56013.10
2018-10-06T12:49:26.109Z,55958.61
2018-10-06T12:51:55.288Z,55968.89
2018-10-06T12:54:24.442Z,55975.06
2018-10-06T12:56:53.572Z,55981.23
2018-10-06T12:59:22.753Z,55967.86
2018-10-06T13:01:51.888Z,55957.58
2018-10-06T13:04:21.053Z,55999.73
2018-10-06T13:06:50.217Z,55948.32
2018-10-06T13:09:19.383Z,55971.97
2018-10-06T13:11:48.551Z,55943.18
2018-10-06T13:14:17.667Z,55944.21
2018-10-06T13:16:46.826Z,55970.95
2018-10-06T13:19:16.038Z,55975.06
2018-10-06T13:21:45.195Z,55962.72
2018-10-06T13:24:14.312Z,55961.69
2018-10-06T13:26:43.472Z,55955.52
2018-10-06T13:29:12.628Z,55946.27
2018-10-06T13:31:41.824Z,55955.52
2018-10-06T13:34:11.054Z,55955.52
2018-10-06T13:36:40.241Z,55993.57
2018-10-06T13:39:10.217Z,55954.49
2018-10-06T13:41:39.324Z,55957.58
2018-10-06T13:44:08.561Z,55926.73
2018-10-06T13:46:37.763Z,55943.18
2018-10-06T13:49:06.933Z,55940.10
2018-10-06T13:51:36.117Z,55945.24
2018-10-06T13:54:05.338Z,55950.38
2018-10-06T13:56:34.508Z,55960.66
2018-10-06T13:59:03.625Z,55952.44
2018-10-06T14:01:32.756Z,55961.69
2018-10-06T14:04:01.896Z,55958.61
2018-10-06T14:06:31.092Z,55973.00
2018-10-06T14:09:00.225Z,55956.55
2018-10-06T14:11:29.410Z,55950.38
2018-10-06T14:13:58.543Z,55971.97
2018-10-06T14:16:27.714Z,55977.11
2018-10-06T14:18:56.882Z,55938.04
2018-10-06T14:21:26.062Z,55979.17
2018-10-06T14:23:55.193Z,56004.87
2018-10-06T14:26:24.374Z,55977.11
2018-10-06T14:28:53.485Z,55963.75
2018-10-06T14:31:22.642Z,55981.23
2018-10-06T14:33:51.789Z,55999.73
2018-10-06T14:36:20.955Z,55991.51
2018-10-06T14:38:50.136Z,55988.43
2018-10-06T14:41:19.966Z,55992.54
2018-10-06T14:43:49.097Z,55995.62
2018-10-06T14:46:18.281Z,55981.23
2018-10-06T14:48:47.434Z,55950.38
2018-10-06T14:51:16.560Z,55971.97
2018-10-06T14:53:45.698Z,55978.14
2018-10-06T14:56:14.860Z,56003.85
2018-10-06T14:58:44.037Z,55991.51
2018-10-06T15:01:13.204Z,56024.41
2018-10-06T15:03:42.416Z,55998.71
2018-10-06T15:06:11.523Z,56007.96
2018-10-06T15:08:40.658Z,56000.76
2018-10-06T15:11:09.851Z,56010.02
2018-10-06T15:13:39.054Z,56030.58
2018-10-06T15:16:08.185Z,56003.85
2018-10-06T15:18:37.324Z,56032.64
2018-10-06T15:21:06.743Z,56017.21
2018-10-06T15:23:35.910Z,56049.09
2018-10-06T15:26:05.200Z,56018.24
2018-10-06T15:28:34.619Z,56025.44
2018-10-06T15:31:03.894Z,56030.58
2018-10-06T15:33:33.024Z,56027.50
2018-10-06T15:36:02.211Z,56020.30
2018-10-06T15:38:31.379Z,56005.90
2018-10-06T15:41:00.602Z,56012.07
2018-10-06T15:43:29.836Z,56020.30
2018-10-06T15:45:59.033Z,56023.38
2018-10-06T15:48:28.176Z,56035.72
2018-10-06T15:50:57.379Z,55993.57
2018-10-06T15:53:26.523Z,56020.30
2018-10-06T15:55:55.690Z,56038.81
2018-10-06T15:58:24.848Z,56038.81
2018-10-06T16:00:54.705Z,56039.84
2018-10-06T16:03:23.855Z,56036.75
2018-10-06T16:05:52.996Z,56026.47
2018-10-06T16:08:22.149Z,56048.06
2018-10-06T16:10:54.167Z,56073.77
2018-10-06T16:13:23.338Z,55997.68
2018-10-06T16:15:52.443Z,56038.81
2018-10-06T16:18:21.671Z,56049.09
2018-10-06T16:20:50.775Z,56024.41
2018-10-06T16:23:20.000Z,56062.46
2018-10-06T16:25:49.171Z,56057.32
2018-10-06T16:28:18.376Z,56041.89
2018-10-06T16:30:47.545Z,56048.06
2018-10-06T16:33:16.690Z,56057.32
2018-10-06T16:35:45.842Z,56053.20
2018-10-06T16:38:14.986Z,56036.75
2018-10-06T16:40:44.138Z,56064.51
2018-10-06T16:43:13.235Z,56057.32
2018-10-06T16:45:42.387Z,56044.98
2018-10-06T16:48:11.499Z,56050.12
2018-10-06T16:50:40.957Z,56060.40
2018-10-06T16:53:10.188Z,56072.74
2018-10-06T16:55:39.337Z,56044.98
2018-10-06T16:58:08.697Z,56035.72
2018-10-06T17:00:37.891Z,56050.12
2018-10-06T17:03:07.001Z,56061.43
2018-10-06T17:05:36.167Z,56084.05
2018-10-06T17:08:05.329Z,56041.89
2018-10-06T17:10:34.481Z,56032.64
2018-10-06T17:13:03.645Z,56070.68
2018-10-06T17:15:32.822Z,56073.77
2018-10-06T17:18:01.995Z,56042.92
2018-10-06T17:20:31.187Z,56042.92
2018-10-06T17:23:00.330Z,56096.39
2018-10-06T17:25:29.523Z,56073.77
2018-10-06T17:27:58.686Z,56057.32
2018-10-06T17:30:27.840Z,56053.20
2018-10-06T17:32:56.975Z,56050.12
2018-10-06T17:35:26.143Z,56070.68
2018-10-06T17:37:55.331Z,56095.36
2018-10-06T17:40:24.485Z,56058.34
2018-10-06T17:42:53.696Z,56069.65
2018-10-06T17:45:22.872Z,56068.62
2018-10-06T17:47:52.056Z,56066.57
2018-10-06T17:50:21.490Z,56086.11
2018-10-06T17:52:50.598Z,56075.82
2018-10-06T17:55:19.784Z,56088.16
2018-10-06T17:57:48.992Z,56096.39
2018-10-06T18:00:18.308Z,56070.68
2018-10-06T18:02:47.525Z,56075.82
2018-10-06T18:05:16.654Z,56042.92
2018-10-06T18:07:45.852Z,56063.48
2018-10-06T18:10:14.977Z,56093.30
2018-10-06T18:12:44.111Z,56076.85
2018-10-06T18:15:13.309Z,56078.91
2018-10-06T18:17:42.485Z,56066.57
2018-10-06T18:20:11.697Z,56079.94
2018-10-06T18:22:40.820Z,56086.11
2018-10-06T18:25:09.952Z,56064.51
2018-10-06T18:27:39.096Z,56069.65
2018-10-06T18:30:08.296Z,56069.65
2018-10-06T18:32:37.453Z,56086.11
2018-10-06T18:35:06.648Z,56074.80
2018-10-06T18:37:35.800Z,56100.50
2018-10-06T18:40:04.933Z,56076.85
2018-10-06T18:42:34.121Z,56063.48
2018-10-06T18:45:03.280Z,56071.71
2018-10-06T18:47:32.455Z,56051.14
2018-10-06T18:50:01.629Z,56084.05
2018-10-06T18:52:30.897Z,56089.19
2018-10-06T18:55:00.717Z,56065.54
2018-10-06T18:57:29.953Z,56086.11
2018-10-06T18:59:59.136Z,56065.54
2018-10-06T19:02:28.307Z,56096.39
2018-10-06T19:04:57.472Z,56067.60
2018-10-06T19:07:26.609Z,56094.33
2018-10-06T19:09:55.773Z,56087.14
2018-10-06T19:12:24.985Z,56042.92
2018-10-06T19:14:54.209Z,56069.65
2018-10-06T19:17:23.365Z,56099.47
2018-10-06T19:19:52.525Z,56089.19
2018-10-06T19:22:21.713Z,56103.59
2018-10-06T19:24:50.891Z,56089.19
2018-10-06T19:27:20.099Z,56088.16
2018-10-06T19:29:49.235Z,56098.45
2018-10-06T19:32:18.372Z,56095.36
2018-10-06T19:34:47.559Z,56074.80
2018-10-06T19:37:16.716Z,56095.36
2018-10-06T19:39:45.932Z,56068.62
2018-10-06T19:42:15.124Z,56110.79
2018-10-06T19:44:44.308Z,56089.19
2018-10-06T19:47:13.459Z,56077.88
2018-10-06T19:49:42.699Z,56080.96
2018-10-06T19:52:11.884Z,56098.45
2018-10-06T19:54:41.061Z,56079.94
2018-10-06T19:57:10.242Z,56094.33
2018-10-06T19:59:39.389Z,56068.62
2018-10-06T20:02:08.696Z,56097.42
2018-10-06T20:04:37.854Z,56069.65
2018-10-06T20:07:08.104Z,56103.59
2018-10-06T20:09:37.300Z,56064.51
2018-10-06T20:12:07.020Z,56097.42
2018-10-06T20:14:36.177Z,56084.05
2018-10-06T20:17:07.092Z,56079.94
2018-10-06T20:19:36.234Z,56075.82
2018-10-06T20:22:06.374Z,56088.16
2018-10-06T20:24:35.595Z,56057.32
2018-10-06T20:27:04.804Z,56062.46
2018-10-06T20:29:33.875Z,56107.70
2018-10-06T20:32:03.028Z,56068.62
2018-10-06T20:34:32.203Z,56114.90
2018-10-06T20:37:01.532Z,56084.05
2018-10-06T20:39:30.713Z,56099.47
2018-10-06T20:42:00.182Z,56086.11
2018-10-06T20:44:29.335Z,56090.22
2018-10-06T20:46:58.446Z,56085.08
2018-10-06T20:49:27.622Z,56076.85
2018-10-06T20:51:56.784Z,56096.39
2018-10-06T20:54:25.957Z,56107.70
2018-10-06T20:56:55.104Z,56087.14
2018-10-06T20:59:24.237Z,56071.71
2018-10-06T21:01:53.440Z,56119.01
2018-10-06T21:04:22.635Z,56075.82
2018-10-06T21:06:51.759Z,56109.76
2018-10-06T21:09:21.055Z,56094.33
2018-10-06T21:11:50.187Z,56079.94
2018-10-06T21:14:19.405Z,56073.77
2018-10-06T21:16:48.556Z,56097.42
2018-10-06T21:19:17.690Z,56106.67
2018-10-06T21:21:46.910Z,56088.16
2018-10-06T21:24:16.019Z,56092.28
2018-10-06T21:26:45.200Z,56080.96
2018-10-06T21:29:14.546Z,56065.54
2018-10-06T21:31:43.636Z,56069.65
2018-10-06T21:34:12.823Z,56078.91
2018-10-06T21:36:41.979Z,56073.77
2018-10-06T21:39:11.166Z,56066.57
2018-10-06T21:41:40.329Z,56076.85
2018-10-06T21:44:09.585Z,56084.05
2018-10-06T21:46:38.731Z,56098.45
2018-10-06T21:49:07.881Z,56127.23
2018-10-06T21:51:37.091Z,56070.68
2018-10-06T21:54:06.279Z,56094.33
2018-10-06T21:56:35.392Z,56119.01
2018-10-06T21:59:04.528Z,56107.70
2018-10-06T22:01:35.310Z,56073.77
2018-10-06T22:04:04.553Z,56101.53
2018-10-06T22:06:33.732Z,56102.56
2018-10-06T22:09:02.840Z,56116.95
2018-10-06T22:11:32.010Z,56117.98
2018-10-06T22:14:01.151Z,56086.11
2018-10-06T22:16:30.407Z,56078.91
2018-10-06T22:18:59.612Z,56092.28
2018-10-06T22:21:28.757Z,56084.05
2018-10-06T22:23:57.871Z,56119.01
2018-10-06T22:26:27.059Z,56098.45
2018-10-06T22:28:56.219Z,56107.70
2018-10-06T22:31:25.358Z,56088.16
2018-10-06T22:33:54.548Z,56098.45
2018-10-06T22:36:23.692Z,56119.01
2018-10-06T22:38:52.873Z,56114.90
2018-10-06T22:41:22.053Z,56117.98
2018-10-06T22:43:51.325Z,56080.96
2018-10-06T22:46:20.434Z,56123.12
2018-10-06T22:48:49.656Z,56143.69
2018-10-06T22:51:18.828Z,56086.11
2018-10-06T22:53:47.989Z,56105.64
2018-10-06T22:56:17.207Z,56097.42
2018-10-06T22:58:46.407Z,56104.62
2018-10-06T23:01:15.540Z,56113.87
2018-10-06T23:03:44.690Z,56120.04
2018-10-06T23:06:13.864Z,56114.90
2018-10-06T23:08:43.056Z,56101.53
2018-10-06T23:11:12.232Z,56121.07
2018-10-06T23:13:41.380Z,56132.38
2018-10-06T23:16:10.581Z,56110.79
2018-10-06T23:18:39.746Z,56088.16
2018-10-06T23:21:08.917Z,56104.62
2018-10-06T23:23:38.079Z,56100.50
2018-10-06T23:26:07.295Z,56125.18
2018-10-06T23:28:36.469Z,56121.07
2018-10-06T23:31:05.600Z,56095.36
2018-10-06T23:33:34.827Z,56136.49
2018-10-06T23:36:03.913Z,56117.98
2018-10-06T23:38:33.126Z,56115.93
2018-10-06T23:41:02.252Z,56097.42
2018-10-06T23:43:31.376Z,56111.81
2018-10-06T23:46:00.519Z,56110.79
2018-10-06T23:48:29.680Z,56096.39
2018-10-06T23:50:58.835Z,56129.29
2018-10-06T23:53:27.983Z,56101.53
2018-10-06T23:55:57.165Z,56117.98
2018-10-06T23:58:26.327Z,56130.32
